Time;durP1;ratioP1;P1;durP2;ratioP2;P2;SDS_P1;SDS_P2;PMS_P1;PMS_P2;Temp;Humidity;BMP_temperature;BMP_pressure;BME280_temperature;BME280_humidity;BME280_pressure;Samples;Min_cycle;Max_cycle;Signal;HPM_P1;HPM_P2
2023/11/04 00:02:10;;;;;;;;;;;;;;;20.41;65.41;98293.09;5092632;28;19916;-77
2023/11/04 00:04:35;;;;;;;;;;;;;;;20.41;65.77;98288.53;5092460;28;20392;-76
2023/11/04 00:07:00;;;;;;;;;;;;;;;20.43;65.73;98291.75;5092588;28;19916;-77
2023/11/04 00:09:26;;;;;;;;;;;;;;;20.44;65.15;98289.88;5092454;28;19912;-77
2023/11/04 00:11:51;;;;;;;;;;;;;;;20.45;65.64;98294.16;5091205;28;20404;-77
2023/11/04 00:14:16;;;;;;;;;;;;;;;20.44;64.97;98296.03;5092297;28;19927;-76
2023/11/04 00:16:42;;;;;;;;;;;;;;;20.45;64.47;98296.84;5092430;28;20441;-76
2023/11/04 00:19:07;;;;;;;;;;;;;;;20.44;65.05;98297.91;5092411;28;19912;-77
2023/11/04 00:21:33;;;;;;;;;;;;;;;20.43;65.66;98299.78;5074116;28;19912;-76
2023/11/04 00:23:59;;;;;;;;;;;;;;;20.47;64.67;98294.69;5092424;28;20363;-77
2023/11/04 00:26:24;;;;;;;;;;;;;;;20.47;66.48;98289.31;5074087;28;19919;-76
2023/11/04 00:28:49;;;;;;;;;;;;;;;20.46;65.15;98298.44;5074120;28;19963;-76
2023/11/04 00:31:14;;;;;;;;;;;;;;;20.46;65.62;98299.25;5074163;28;19916;-76
2023/11/04 00:33:40;;;;;;;;;;;;;;;20.45;66.13;98300.31;5092109;28;20430;-76
2023/11/04 00:36:06;;;;;;;;;;;;;;;20.46;66.17;98296.56;5073918;28;20068;-76
2023/11/04 00:38:32;;;;;;;;;;;;;;;20.46;65.63;98279.66;5073011;28;19971;-76
2023/11/04 00:40:58;;;;;;;;;;;;;;;20.47;66.17;98257.16;5092040;28;19912;-76
2023/11/04 00:43:23;;;;;;;;;;;;;;;20.47;65.91;98254.47;5092201;28;20010;-76
2023/11/04 00:45:48;;;;;;;;;;;;;;;20.46;65.70;98242.94;5073743;28;19912;-77
2023/11/04 00:48:13;;;;;;;;;;;;;;;20.47;66.35;98233.00;5091818;28;20316;-76
2023/11/04 00:50:39;;;;;;;;;;;;;;;20.46;66.03;98248.28;5091729;28;19913;-76
2023/11/04 00:53:04;;;;;;;;;;;;;;;20.48;66.09;98264.13;5090485;28;19935;-76
2023/11/04 00:55:29;;;;;;;;;;;;;;;20.48;66.36;98275.63;5091834;28;19916;-76
2023/11/04 00:57:55;;;;;;;;;;;;;;;20.49;66.48;98276.44;5092225;28;19908;-76
2023/11/04 01:00:25;;;;;;;;;;;;;;;20.49;66.53;98277.25;5093289;28;19912;-76
2023/11/04 01:02:52;;;;;;;;;;;;;;;20.52;66.46;98276.69;5092700;28;20031;-77
2023/11/04 01:05:17;;;;;;;;;;;;;;;20.54;66.21;98276.44;5091974;28;20355;-77
2023/11/04 01:07:43;;;;;;;;;;;;;;;20.54;66.37;98277.22;5091702;28;19923;-76
2023/11/04 01:10:08;;;;;;;;;;;;;;;20.54;66.00;98274.53;5092146;28;20013;-77
2023/11/04 01:12:33;;;;;;;;;;;;;;;20.54;66.65;98274.53;5091658;28;19912;-76
2023/11/04 01:14:59;;;;;;;;;;;;;;;20.54;66.27;98271.06;5091524;28;19930;-77
2023/11/04 01:17:24;;;;;;;;;;;;;;;20.55;66.16;98278.03;5073307;28;20407;-76
2023/11/04 01:19:49;;;;;;;;;;;;;;;20.56;65.83;98274.28;5091411;28;20003;-77
2023/11/04 01:22:14;;;;;;;;;;;;;;;20.56;65.60;98280.44;5073273;28;19912;-76
2023/11/04 01:24:40;;;;;;;;;;;;;;;20.52;66.70;98282.06;5073529;28;19912;-77
2023/11/04 01:27:08;;;;;;;;;;;;;;;20.46;64.01;98293.88;5090174;28;20396;-77
2023/11/04 01:29:34;;;;;;;;;;;;;;;20.33;61.65;98302.47;5091504;28;20030;-76
2023/11/04 01:31:59;;;;;;;;;;;;;;;20.24;61.38;98304.88;5091843;28;20010;-77
2023/11/04 01:34:24;;;;;;;;;;;;;;;20.14;59.95;98309.47;5091376;28;19912;-76
2023/11/04 01:36:49;;;;;;;;;;;;;;;20.02;60.48;98328.47;5091704;28;19934;-77
2023/11/04 01:39:15;;;;;;;;;;;;;;;19.88;60.68;98322.84;5091339;28;19954;-76
2023/11/04 01:41:40;;;;;;;;;;;;;;;19.71;58.74;98306.25;5091297;28;20306;-76
2023/11/04 01:44:05;;;;;;;;;;;;;;;19.57;59.95;98297.13;5091390;28;19912;-76
2023/11/04 01:46:31;;;;;;;;;;;;;;;19.49;58.19;98298.44;5091356;28;19923;-76
2023/11/04 01:48:56;;;;;;;;;;;;;;;19.45;59.50;98289.31;5092704;28;19912;-77
2023/11/04 01:51:21;;;;;;;;;;;;;;;19.43;58.80;98286.09;5095026;28;19998;-76
2023/11/04 01:53:48;;;;;;;;;;;;;;;19.44;59.18;98292.25;5094958;28;19994;-77
2023/11/04 01:56:17;;;;;;;;;;;;;;;19.42;59.45;98302.44;5094769;28;20395;-76
2023/11/04 01:58:44;;;;;;;;;;;;;;;19.43;58.92;98296.00;5094872;28;20331;-77
2023/11/04 02:01:10;;;;;;;;;;;;;;;19.41;58.13;98280.22;5095084;28;19918;-77
2023/11/04 02:03:36;;;;;;;;;;;;;;;19.38;59.16;98299.47;5094801;28;20003;-76
2023/11/04 02:06:01;;;;;;;;;;;;;;;19.37;59.24;98300.56;5094743;28;20315;-76
2023/11/04 02:08:27;;;;;;;;;;;;;;;19.40;59.50;98310.72;5094769;28;19916;-77
2023/11/04 02:10:52;;;;;;;;;;;;;;;19.43;59.87;98298.69;5093357;28;20412;-77
2023/11/04 02:13:17;;;;;;;;;;;;;;;19.43;59.13;98309.41;5076788;28;19919;-77
2023/11/04 02:15:42;;;;;;;;;;;;;;;19.44;58.85;98301.09;5093190;28;20053;-77
2023/11/04 02:18:08;;;;;;;;;;;;;;;19.44;58.82;98293.06;5076258;28;20423;-76
2023/11/04 02:20:33;;;;;;;;;;;;;;;19.45;58.68;98289.31;5094503;28;19965;-77
2023/11/04 02:22:59;;;;;;;;;;;;;;;19.48;58.73;98285.31;5094412;28;19919;-77
2023/11/04 02:25:34;;;;;;;;;;;;;;;19.47;58.55;98291.72;5076226;28;19912;-77
2023/11/04 02:28:00;;;;;;;;;;;;;;;19.47;58.57;98278.34;5094235;28;20397;-77
2023/11/04 02:30:25;;;;;;;;;;;;;;;19.46;58.62;98271.38;5094360;28;19944;-76
2023/11/04 02:32:51;;;;;;;;;;;;;;;19.47;58.87;98273.78;5092917;28;19923;-77
2023/11/04 02:35:16;;;;;;;;;;;;;;;19.49;58.67;98254.78;5094462;28;20002;-76
2023/11/04 02:37:42;;;;;;;;;;;;;;;19.49;58.47;98258.28;5076043;28;19912;-76
2023/11/04 02:40:10;;;;;;;;;;;;;;;19.51;58.29;98255.31;5094186;28;19919;-76
2023/11/04 02:42:35;;;;;;;;;;;;;;;19.49;58.52;98242.22;5094130;28;19951;-76
2023/11/04 02:45:00;;;;;;;;;;;;;;;19.50;58.43;98232.31;5093867;28;19920;-77
2023/11/04 02:47:25;;;;;;;;;;;;;;;19.52;58.58;98233.66;5093810;28;20380;-76
2023/11/04 02:49:51;;;;;;;;;;;;;;;19.52;58.34;98217.59;5093844;28;19912;-77
2023/11/04 02:52:16;;;;;;;;;;;;;;;19.54;58.58;98217.34;5093818;28;19991;-76
2023/11/04 02:54:41;;;;;;;;;;;;;;;19.55;58.29;98214.41;5078633;28;19914;-76
2023/11/04 02:57:06;;;;;;;;;;;;;;;19.56;58.03;98218.69;5093584;28;19908;-77
2023/11/04 02:59:32;;;;;;;;;;;;;;;19.56;58.18;98226.72;5075273;28;19912;-76
2023/11/04 03:01:57;;;;;;;;;;;;;;;19.55;58.04;98221.63;5075071;28;20392;-77
2023/11/04 03:04:22;;;;;;;;;;;;;;;19.54;58.44;98220.03;5093428;28;20077;-76
2023/11/04 03:06:47;;;;;;;;;;;;;;;19.54;58.50;98214.66;5093410;28;19916;-77
2023/11/04 03:09:13;;;;;;;;;;;;;;;19.52;58.70;98212.25;5093448;28;19912;-76
2023/11/04 03:11:39;;;;;;;;;;;;;;;19.52;58.52;98209.56;5092241;28;20410;-77
2023/11/04 03:14:04;;;;;;;;;;;;;;;19.50;58.71;98203.66;5093373;28;19916;-76
2023/11/04 03:16:30;;;;;;;;;;;;;;;19.50;58.56;98182.25;5093210;28;20392;-77
2023/11/04 03:18:55;;;;;;;;;;;;;;;19.51;58.71;98183.84;5093227;28;19970;-74
2023/11/04 03:21:21;;;;;;;;;;;;;;;19.51;58.81;98191.88;5091960;28;20427;-77
2023/11/04 03:23:47;;;;;;;;;;;;;;;19.49;58.73;98179.84;5075194;28;19916;-76
2023/11/04 03:26:13;;;;;;;;;;;;;;;19.48;58.65;98197.78;5093256;28;19969;-77
2023/11/04 03:28:38;;;;;;;;;;;;;;;19.45;58.63;98200.19;5093243;28;19920;-77
2023/11/04 03:31:03;;;;;;;;;;;;;;;19.44;59.00;98209.28;5093087;28;19986;-76
2023/11/04 03:33:29;;;;;;;;;;;;;;;19.45;58.78;98202.84;5093324;28;20365;-76
2023/11/04 03:35:54;;;;;;;;;;;;;;;19.48;58.63;98196.97;5074961;28;19912;-77
2023/11/04 03:38:19;;;;;;;;;;;;;;;19.47;58.56;98206.88;5093053;28;19916;-77
2023/11/04 03:40:44;;;;;;;;;;;;;;;19.47;58.56;98198.84;5092871;28;19912;-76
2023/11/04 03:43:10;;;;;;;;;;;;;;;19.46;58.38;98209.81;5091683;28;20411;-77
2023/11/04 03:45:35;;;;;;;;;;;;;;;19.42;58.43;98198.03;5093158;28;19912;-76
2023/11/04 03:48:00;;;;;;;;;;;;;;;19.42;58.45;98206.88;5093110;28;19923;-76
2023/11/04 03:50:26;;;;;;;;;;;;;;;19.43;58.42;98211.16;5093258;28;19918;-76
2023/11/04 03:52:51;;;;;;;;;;;;;;;19.46;58.70;98217.84;5093091;28;19966;-77
2023/11/04 03:55:16;;;;;;;;;;;;;;;19.46;58.56;98207.94;5092989;28;20000;-76
2023/11/04 03:57:41;;;;;;;;;;;;;;;19.47;58.69;98206.88;5093001;28;19955;-76
2023/11/04 04:00:08;;;;;;;;;;;;;;;19.45;58.65;98209.00;5074622;28;19916;-76
2023/11/04 04:02:33;;;;;;;;;;;;;;;19.43;58.74;98221.88;5092934;28;19916;-76
2023/11/04 04:04:59;;;;;;;;;;;;;;;19.41;58.86;98202.59;5093085;28;19923;-76
2023/11/04 04:07:24;;;;;;;;;;;;;;;19.40;58.75;98176.91;5093008;28;19924;-76
2023/11/04 04:09:49;;;;;;;;;;;;;;;19.41;58.96;98165.13;5092814;28;19938;-77
2023/11/04 04:12:14;;;;;;;;;;;;;;;19.41;59.09;98134.88;5092550;28;19951;-76
2023/11/04 04:14:44;;;;;;;;;;;;;;;19.46;59.06;98116.13;5092446;28;19919;-78
2023/11/04 04:17:10;;;;;;;;;;;;;;;19.36;58.97;98104.38;5092365;28;19998;-77
2023/11/04 04:19:36;;;;;;;;;;;;;;;19.35;58.83;98075.19;5092191;28;20483;-77
2023/11/04 04:22:01;;;;;;;;;;;;;;;19.30;58.83;98067.94;5092012;28;20389;-77
2023/11/04 04:24:27;;;;;;;;;;;;;;;19.28;59.00;98099.53;5092024;28;19908;-76
2023/11/04 04:26:52;;;;;;;;;;;;;;;19.24;58.82;98143.94;5092350;28;19985;-77
2023/11/04 04:29:17;;;;;;;;;;;;;;;19.21;58.97;98173.13;5092399;28;19913;-76
2023/11/04 04:31:42;;;;;;;;;;;;;;;19.20;58.95;98166.97;5092352;28;19918;-76
2023/11/04 04:34:08;;;;;;;;;;;;;;;19.18;58.97;98155.72;5092402;28;19912;-76
2023/11/04 04:36:33;;;;;;;;;;;;;;;19.19;59.04;98141.28;5074179;28;19924;-76
2023/11/04 04:38:58;;;;;;;;;;;;;;;19.19;58.90;98135.13;5074332;28;19912;-76
2023/11/04 04:41:25;;;;;;;;;;;;;;;19.19;58.98;98133.25;5095244;28;19912;-76
2023/11/04 04:43:51;;;;;;;;;;;;;;;19.19;59.21;98159.19;5092089;28;19923;-77
2023/11/04 04:46:16;;;;;;;;;;;;;;;19.18;59.23;98157.59;5073694;28;19912;-77
2023/11/04 04:48:41;;;;;;;;;;;;;;;19.19;59.03;98153.84;5091723;28;19923;-76
2023/11/04 04:51:07;;;;;;;;;;;;;;;19.17;59.20;98148.78;5073620;28;19916;-77
2023/11/04 04:53:32;;;;;;;;;;;;;;;19.16;59.17;98133.78;5073644;28;20011;-76
2023/11/04 04:55:58;;;;;;;;;;;;;;;19.14;59.21;98133.25;5091815;28;20349;-77
2023/11/04 04:58:23;;;;;;;;;;;;;;;19.13;59.22;98126.28;5091858;28;19916;-76
2023/11/04 05:00:48;;;;;;;;;;;;;;;19.14;59.26;98138.59;5091831;28;19912;-77
2023/11/04 05:03:13;;;;;;;;;;;;;;;19.12;59.39;98148.78;5070169;28;20448;-76
2023/11/04 05:05:39;;;;;;;;;;;;;;;19.10;59.44;98136.72;5071539;28;19916;-77
2023/11/04 05:08:04;;;;;;;;;;;;;;;19.12;59.45;98137.25;5086935;28;19917;-76
2023/11/04 05:10:29;;;;;;;;;;;;;;;19.11;59.53;98128.44;5071549;28;19916;-77
2023/11/04 05:12:55;;;;;;;;;;;;;;;19.12;59.61;98154.13;5071649;28;19995;-76
2023/11/04 05:15:20;;;;;;;;;;;;;;;19.11;59.47;98154.38;5071813;28;20013;-78
2023/11/04 05:17:46;;;;;;;;;;;;;;;19.08;59.59;98149.56;5071629;28;19913;-76
2023/11/04 05:20:11;;;;;;;;;;;;;;;19.08;59.85;98155.72;5072018;28;20308;-77
2023/11/04 05:22:36;;;;;;;;;;;;;;;19.10;59.88;98147.44;5071552;28;19912;-77
2023/11/04 05:25:03;;;;;;;;;;;;;;;19.09;59.95;98132.44;5074791;28;20381;-76
2023/11/04 05:27:28;;;;;;;;;;;;;;;19.11;59.69;98143.69;5075438;28;20372;-77
2023/11/04 05:29:54;;;;;;;;;;;;;;;19.11;59.68;98146.38;5075681;28;19913;-77
2023/11/04 05:32:19;;;;;;;;;;;;;;;19.11;59.78;98132.97;5075676;28;19919;-77
2023/11/04 05:34:44;;;;;;;;;;;;;;;19.11;59.82;98133.78;5075211;28;19912;-76
2023/11/04 05:37:09;;;;;;;;;;;;;;;19.12;59.83;98131.91;5075078;28;19990;-77
2023/11/04 05:39:35;;;;;;;;;;;;;;;19.13;59.77;98134.31;5075373;28;19913;-77
2023/11/04 05:42:02;;;;;;;;;;;;;;;19.16;59.73;98127.63;5075364;28;21024;-77
2023/11/04 05:44:27;;;;;;;;;;;;;;;19.17;59.83;98123.88;5075338;28;19935;-77
2023/11/04 05:46:52;;;;;;;;;;;;;;;19.19;59.76;98121.75;5075340;28;20424;-76
2023/11/04 05:49:18;;;;;;;;;;;;;;;19.20;59.65;98116.13;5075132;28;19912;-77
2023/11/04 05:51:43;;;;;;;;;;;;;;;19.22;59.80;98105.16;5090576;28;19919;-76
2023/11/04 05:54:11;;;;;;;;;;;;;;;19.22;60.10;98108.63;5074943;28;19936;-78
2023/11/04 05:56:37;;;;;;;;;;;;;;;19.22;59.79;98105.16;5073597;28;19986;-77
2023/11/04 05:59:02;;;;;;;;;;;;;;;19.23;59.71;98106.75;5074871;28;20312;-77
2023/11/04 06:01:27;;;;;;;;;;;;;;;19.24;59.75;98086.97;5090550;28;20340;-78
2023/11/04 06:03:52;;;;;;;;;;;;;;;19.22;59.75;98097.94;5090395;28;20015;-76
2023/11/04 06:06:21;;;;;;;;;;;;;;;19.22;59.88;98089.91;5075027;28;19920;-76
2023/11/04 06:08:47;;;;;;;;;;;;;;;19.26;59.79;98061.53;5074806;28;20404;-77
2023/11/04 06:11:12;;;;;;;;;;;;;;;19.27;59.64;98057.78;5074577;28;19913;-77
2023/11/04 06:13:37;;;;;;;;;;;;;;;19.29;59.56;98052.16;5074409;28;19948;-77
2023/11/04 06:16:03;;;;;;;;;;;;;;;19.30;59.45;98033.16;5074515;28;19912;-76
2023/11/04 06:18:28;;;;;;;;;;;;;;;19.32;59.29;98032.88;5073180;28;19912;-77
2023/11/04 06:20:54;;;;;;;;;;;;;;;19.32;59.59;98023.00;5074251;28;19935;-76
2023/11/04 06:23:19;;;;;;;;;;;;;;;19.32;59.39;98014.97;5074234;28;19918;-77
2023/11/04 06:25:44;;;;;;;;;;;;;;;19.37;59.38;98003.47;5074548;28;20013;-77
2023/11/04 06:28:10;;;;;;;;;;;;;;;19.40;59.33;98007.47;5074432;28;19924;-77
2023/11/04 06:30:35;;;;;;;;;;;;;;;19.41;59.65;97999.16;5090235;28;20304;-76
2023/11/04 06:33:01;;;;;;;;;;;;;;;19.41;59.31;97996.50;5074977;28;19920;-77
2023/11/04 06:35:28;;;;;;;;;;;;;;;19.43;59.31;97982.84;5075567;28;19916;-77
2023/11/04 06:37:53;;;;;;;;;;;;;;;19.44;59.06;97987.91;5073586;28;19913;-77
2023/11/04 06:40:19;;;;;;;;;;;;;;;19.44;59.11;97971.06;5089667;28;19913;-78
2023/11/04 06:42:44;;;;;;;;;;;;;;;19.46;59.21;97956.31;5073706;28;19909;-78
2023/11/04 06:45:10;;;;;;;;;;;;;;;19.51;58.72;97964.34;5073698;28;19920;-78
2023/11/04 06:47:36;;;;;;;;;;;;;;;19.49;59.36;97954.97;5073758;28;19916;-77
2023/11/04 06:50:03;;;;;;;;;;;;;;;19.53;59.14;97940.78;5073814;28;19912;-78
2023/11/04 06:52:29;;;;;;;;;;;;;;;19.58;59.03;97931.94;5073790;28;19912;-78
2023/11/04 06:54:55;;;;;;;;;;;;;;;19.56;59.05;97929.53;5073558;28;20377;-77
2023/11/04 06:57:20;;;;;;;;;;;;;;;19.59;58.86;97923.63;5072268;28;20066;-77
2023/11/04 06:59:45;;;;;;;;;;;;;;;19.60;59.02;97919.88;5072427;28;19919;-77
2023/11/04 07:02:10;;;;;;;;;;;;;;;19.63;58.69;97894.44;5073561;28;20385;-79
2023/11/04 07:04:36;;;;;;;;;;;;;;;19.67;59.01;97914.22;5093291;28;19927;-77
2023/11/04 07:07:01;;;;;;;;;;;;;;;19.68;59.18;97915.81;5092631;28;20358;-78
2023/11/04 07:09:27;;;;;;;;;;;;;;;19.73;59.03;97933.72;5093961;28;19962;-77
2023/11/04 07:11:53;;;;;;;;;;;;;;;19.75;58.93;97937.75;5093973;28;19912;-77
2023/11/04 07:14:19;;;;;;;;;;;;;;;19.78;59.00;97926.47;5093757;28;20310;-78
2023/11/04 07:16:45;;;;;;;;;;;;;;;19.80;58.88;97935.03;5093366;28;19912;-76
2023/11/04 07:19:11;;;;;;;;;;;;;;;19.84;59.21;97943.31;5093519;28;19969;-77
2023/11/04 07:21:37;;;;;;;;;;;;;;;19.87;58.84;97943.56;5093365;28;20380;-78
2023/11/04 07:24:03;;;;;;;;;;;;;;;19.94;58.99;97945.94;5093462;28;19965;-77
2023/11/04 07:26:29;;;;;;;;;;;;;;;20.01;58.77;97930.34;5075294;28;19934;-78
2023/11/04 07:28:55;;;;;;;;;;;;;;;20.10;58.59;97938.63;5093356;28;19916;-77
2023/11/04 07:31:20;;;;;;;;;;;;;;;20.17;58.55;97937.22;5093184;28;20411;-77
2023/11/04 07:33:45;;;;;;;;;;;;;;;20.28;57.93;97929.91;5093069;28;19912;-77
2023/11/04 07:36:12;;;;;;;;;;;;;;;20.36;58.65;97940.03;5093416;28;19916;-76
2023/11/04 07:38:37;;;;;;;;;;;;;;;20.42;58.29;97936.25;5093298;28;19913;-75
2023/11/04 07:41:03;;;;;;;;;;;;;;;20.49;58.46;97947.44;5092769;28;19912;-77
2023/11/04 07:43:32;;;;;;;;;;;;;;;20.55;58.27;97945.53;5074744;28;19919;-77
2023/11/04 07:45:57;;;;;;;;;;;;;;;20.60;58.41;97948.97;5092483;28;19912;-77
2023/11/04 07:48:22;;;;;;;;;;;;;;;20.67;58.30;97939.78;5074383;28;19927;-77
2023/11/04 07:50:48;;;;;;;;;;;;;;;20.72;58.72;97940.53;5093009;28;19912;-78
2023/11/04 07:53:15;;;;;;;;;;;;;;;20.80;58.76;97933.75;5074885;28;20384;-76
2023/11/04 07:55:40;;;;;;;;;;;;;;;20.88;58.03;97923.25;5092980;28;20423;-76
2023/11/04 07:58:05;;;;;;;;;;;;;;;20.99;58.89;97920.44;5092576;28;19912;-76
2023/11/04 08:00:31;;;;;;;;;;;;;;;21.11;58.60;97926.22;5091153;28;19912;-75
2023/11/04 08:02:57;;;;;;;;;;;;;;;21.25;58.60;97927.97;5092198;28;20017;-74
2023/11/04 08:05:22;;;;;;;;;;;;;;;21.40;59.68;97915.44;5092501;28;19912;-77
2023/11/04 08:07:48;;;;;;;;;;;;;;;21.52;58.66;97921.19;5092471;28;19916;-77
2023/11/04 08:10:13;;;;;;;;;;;;;;;21.65;59.14;97903.59;5092367;28;19951;-75
2023/11/04 08:12:38;;;;;;;;;;;;;;;21.76;59.87;97924.66;5092418;28;20388;-77
2023/11/04 08:15:06;;;;;;;;;;;;;;;21.88;59.11;97924.22;5091075;28;19919;-75
2023/11/04 08:17:34;;;;;;;;;;;;;;;21.98;58.98;97912.50;5092468;28;19912;-77
2023/11/04 08:20:08;;;;;;;;;;;;;;;22.04;59.09;97914.06;5092497;28;19983;-77
2023/11/04 08:22:33;;;;;;;;;;;;;;;22.13;58.46;97906.94;5092461;28;19995;-75
2023/11/04 08:24:59;;;;;;;;;;;;;;;22.30;58.10;97899.16;5092905;28;19973;-78
2023/11/04 08:27:24;;;;;;;;;;;;;;;22.42;57.82;97907.56;5092867;28;19946;-75
2023/11/04 08:29:49;;;;;;;;;;;;;;;22.55;57.44;97899.81;5091030;28;19912;-78
2023/11/04 08:32:14;;;;;;;;;;;;;;;22.67;57.12;97898.25;5092188;28;19912;-76
2023/11/04 08:34:40;;;;;;;;;;;;;;;22.81;56.94;97884.84;5092149;28;19916;-78
2023/11/04 08:37:07;;;;;;;;;;;;;;;22.92;56.62;97872.78;5092260;28;19960;-76
2023/11/04 08:39:33;;;;;;;;;;;;;;;22.98;56.60;97855.44;5092483;28;20009;-75
2023/11/04 08:41:58;;;;;;;;;;;;;;;23.05;56.48;97838.91;5092005;28;20339;-78
2023/11/04 08:44:24;;;;;;;;;;;;;;;23.11;56.13;97854.66;5091904;28;19951;-75
2023/11/04 08:46:49;;;;;;;;;;;;;;;23.22;55.84;97789.84;5091593;28;19912;-77
2023/11/04 08:49:14;;;;;;;;;;;;;;;23.31;55.57;97783.44;5073671;28;19991;-75
2023/11/04 08:51:40;;;;;;;;;;;;;;;23.38;55.24;97761.47;5092080;28;19912;-76
2023/11/04 08:54:09;;;;;;;;;;;;;;;23.42;55.01;97739.00;5091820;28;20373;-77
2023/11/04 08:56:35;;;;;;;;;;;;;;;23.56;54.69;97725.50;5091515;28;19965;-75
2023/11/04 08:59:00;;;;;;;;;;;;;;;23.54;54.36;97732.25;5093054;28;19912;-77
2023/11/04 09:01:25;;;;;;;;;;;;;;;23.56;54.48;97717.41;5096151;28;19919;-76
2023/11/04 09:03:55;;;;;;;;;;;;;;;23.58;54.59;97703.63;5095843;28;19920;-77
2023/11/04 09:06:20;;;;;;;;;;;;;;;23.62;54.53;97686.56;5077752;28;20385;-79
2023/11/04 09:08:45;;;;;;;;;;;;;;;23.64;54.61;97678.97;5095723;28;19916;-77
2023/11/04 09:11:11;;;;;;;;;;;;;;;23.67;54.52;97683.72;5095574;28;20400;-78
2023/11/04 09:13:37;;;;;;;;;;;;;;;23.68;54.75;97698.78;5095637;28;19913;-76
2023/11/04 09:16:03;;;;;;;;;;;;;;;23.70;54.33;97715.44;5095796;28;19912;-76
2023/11/04 09:18:28;;;;;;;;;;;;;;;23.69;54.79;97711.16;5077356;28;19912;-76
2023/11/04 09:20:53;;;;;;;;;;;;;;;23.68;54.68;97698.00;5095629;28;19912;-76
2023/11/04 09:23:19;;;;;;;;;;;;;;;23.71;54.79;97697.38;5077352;28;19912;-76
2023/11/04 09:25:44;;;;;;;;;;;;;;;23.78;54.72;97716.59;5095443;28;20303;-76
2023/11/04 09:28:09;;;;;;;;;;;;;;;23.80;54.68;97729.81;5095377;28;19966;-77
2023/11/04 09:30:34;;;;;;;;;;;;;;;23.84;54.74;97738.84;5095534;28;20469;-76
2023/11/04 09:33:00;;;;;;;;;;;;;;;23.82;54.62;97749.94;5077329;28;19930;-76
2023/11/04 09:35:25;;;;;;;;;;;;;;;23.77;54.83;97769.69;5077250;28;20396;-76
2023/11/04 09:37:50;;;;;;;;;;;;;;;23.72;54.78;97787.91;5095347;28;19968;-76
2023/11/04 09:40:16;;;;;;;;;;;;;;;23.22;54.96;97730.59;5095272;28;19947;-77
2023/11/04 09:42:43;;;;;;;;;;;;;;;23.57;55.02;97829.47;5094240;28;19918;-77
2023/11/04 09:45:10;;;;;;;;;;;;;;;23.45;55.44;97861.50;5095298;28;19912;-76
2023/11/04 09:47:35;;;;;;;;;;;;;;;23.40;55.47;97878.56;5095274;28;19923;-76
2023/11/04 09:50:00;;;;;;;;;;;;;;;23.08;54.44;97946.78;5095211;28;19912;-77
2023/11/04 09:52:26;;;;;;;;;;;;;;;22.65;54.91;97956.94;5095109;28;19908;-77
2023/11/04 09:54:52;;;;;;;;;;;;;;;22.08;55.54;97971.53;5075476;28;19916;-77
2023/11/04 09:57:17;;;;;;;;;;;;;;;21.54;56.64;97953.94;5095093;28;19991;-76
2023/11/04 09:59:43;;;;;;;;;;;;;;;21.02;57.47;97931.41;5095046;28;19944;-76
2023/11/04 10:02:11;;;;;;;;;;;;;;;20.79;58.00;97943.69;5076862;28;19912;-76
2023/11/04 10:04:40;;;;;;;;;;;;;;;20.57;58.36;97959.47;5095631;28;19920;-76
2023/11/04 10:07:05;;;;;;;;;;;;;;;20.39;58.53;97898.47;5094745;28;19981;-76
2023/11/04 10:09:31;;;;;;;;;;;;;;;20.28;58.84;97801.25;5094497;28;20392;-76
2023/11/04 10:11:56;;;;;;;;;;;;;;;20.26;59.05;97884.63;5095884;28;20335;-77
2023/11/04 10:14:21;;;;;;;;;;;;;;;20.11;59.21;98150.03;5094527;28;19910;-77
2023/11/04 10:16:47;;;;;;;;;;;;;;;19.85;64.84;98212.75;5095544;28;19912;-77
2023/11/04 10:19:13;;;;;;;;;;;;;;;19.16;67.38;98149.03;5094969;28;19961;-77
2023/11/04 10:21:42;;;;;;;;;;;;;;;18.89;66.00;98034.28;5086578;28;19928;-79
2023/11/04 10:24:08;;;;;;;;;;;;;;;18.80;67.86;97953.81;5073764;28;19957;-77
2023/11/04 10:26:33;;;;;;;;;;;;;;;18.80;71.20;98007.28;5087775;28;19959;-77
2023/11/04 10:28:59;;;;;;;;;;;;;;;18.84;68.81;97994.97;5087366;28;20294;-76
2023/11/04 10:31:25;;;;;;;;;;;;;;;18.82;66.47;97969.59;5093154;28;19912;-76
2023/11/04 10:33:50;;;;;;;;;;;;;;;18.85;65.85;97915.56;5074098;28;19920;-77
2023/11/04 10:36:17;;;;;;;;;;;;;;;18.93;64.67;97897.09;5074132;28;20286;-76
2023/11/04 10:38:44;;;;;;;;;;;;;;;18.84;65.47;97909.41;5074056;28;20401;-76
2023/11/04 10:41:10;;;;;;;;;;;;;;;18.85;64.08;97888.81;5073916;28;19919;-77
2023/11/04 10:43:58;;;;;;;;;;;;;;;18.80;63.97;97888.84;5056903;28;19991;-76
2023/11/04 10:46:30;;;;;;;;;;;;;;;18.66;64.90;97873.34;5094141;28;19966;-76
2023/11/04 10:49:07;;;;;;;;;;;;;;;18.54;65.92;97770.41;5075642;28;20385;-76
2023/11/04 10:51:36;;;;;;;;;;;;;;;18.56;64.83;97792.34;5076067;28;19912;-76
2023/11/04 10:54:02;;;;;;;;;;;;;;;18.51;65.46;97837.78;5092954;28;19912;-76
2023/11/04 10:56:33;;;;;;;;;;;;;;;18.52;64.80;97895.50;5092501;28;20372;-76
2023/11/04 10:59:05;;;;;;;;;;;;;;;18.43;65.80;97901.41;5075557;28;19919;-77
2023/11/04 11:01:31;;;;;;;;;;;;;;;18.29;66.71;97841.56;5092456;28;19912;-76
2023/11/04 11:03:56;;;;;;;;;;;;;;;18.38;64.87;97825.78;5063437;28;20423;-77
2023/11/04 11:06:22;;;;;;;;;;;;;;;18.39;65.80;97747.22;5070160;28;20003;-76
2023/11/04 11:08:48;;;;;;;;;;;;;;;18.28;65.79;97662.84;5071049;28;19917;-76
2023/11/04 11:11:24;;;;;;;;;;;;;;;18.26;66.01;97603.53;5072503;28;20332;-76
2023/11/04 11:13:52;;;;;;;;;;;;;;;18.25;66.13;97658.03;5073044;28;20361;-76
2023/11/04 11:16:17;;;;;;;;;;;;;;;18.22;66.50;97693.31;5073360;28;19955;-76
2023/11/04 11:18:43;;;;;;;;;;;;;;;18.17;67.27;97688.00;5073450;28;19920;-76
2023/11/04 11:21:09;;;;;;;;;;;;;;;18.13;67.94;97685.06;5071115;28;19912;-78
2023/11/04 11:23:34;;;;;;;;;;;;;;;18.19;69.35;97683.16;5073110;28;19912;-76
2023/11/04 11:26:04;;;;;;;;;;;;;;;18.25;67.26;97626.78;5073003;28;19999;-76
2023/11/04 11:28:33;;;;;;;;;;;;;;;18.28;67.19;97572.81;5072971;28;19946;-77
2023/11/04 11:30:58;;;;;;;;;;;;;;;18.29;67.62;97510.28;5073127;28;19958;-77
2023/11/04 11:33:25;;;;;;;;;;;;;;;18.43;66.92;97543.31;5072814;28;19909;-75
2023/11/04 11:35:57;;;;;;;;;;;;;;;18.42;66.88;97610.41;5071558;28;19912;-76
2023/11/04 11:38:23;;;;;;;;;;;;;;;18.45;66.58;97625.09;5072640;28;19999;-76
2023/11/04 11:40:48;;;;;;;;;;;;;;;18.43;66.52;97639.53;5071484;28;19947;-76
2023/11/04 11:43:13;;;;;;;;;;;;;;;18.47;66.13;97698.56;5072669;28;19912;-76
2023/11/04 11:45:39;;;;;;;;;;;;;;;18.41;66.73;97769.94;5088227;28;19912;-75
2023/11/04 11:48:05;;;;;;;;;;;;;;;18.40;66.78;97778.22;5072251;28;19923;-76
2023/11/04 11:50:30;;;;;;;;;;;;;;;18.46;66.41;97730.91;5087975;28;19935;-76
2023/11/04 11:52:56;;;;;;;;;;;;;;;18.57;66.14;97636.25;5072547;28;20306;-75
2023/11/04 11:55:22;;;;;;;;;;;;;;;18.51;67.21;97682.78;5072423;28;19919;-75
2023/11/04 11:57:47;;;;;;;;;;;;;;;18.52;67.65;97690.53;5072578;28;20309;-76
2023/11/04 12:00:12;;;;;;;;;;;;;;;18.48;67.80;97672.63;5072652;28;19912;-75
2023/11/04 12:02:38;;;;;;;;;;;;;;;18.46;69.47;97664.88;5075729;28;19920;-75
2023/11/04 12:05:03;;;;;;;;;;;;;;;18.50;68.12;97667.81;5093048;28;20358;-75
2023/11/04 12:07:28;;;;;;;;;;;;;;;18.47;68.66;97671.84;5093025;28;20407;-75
2023/11/04 12:09:55;;;;;;;;;;;;;;;18.51;68.99;97678.22;5093086;28;20328;-75
2023/11/04 12:12:21;;;;;;;;;;;;;;;18.54;70.20;97669.66;5074454;28;20339;-75
2023/11/04 12:14:46;;;;;;;;;;;;;;;18.68;69.07;97693.97;5074303;28;19952;-76
2023/11/04 12:17:12;;;;;;;;;;;;;;;18.77;70.27;97691.53;5092327;28;20377;-76
2023/11/04 12:19:37;;;;;;;;;;;;;;;18.87;68.48;97694.13;5091125;28;20358;-75
2023/11/04 12:22:03;;;;;;;;;;;;;;;18.93;67.61;97695.72;5092135;28;19974;-75
2023/11/04 12:24:29;;;;;;;;;;;;;;;18.99;67.87;97695.41;5092115;28;19908;-76
2023/11/04 12:26:54;;;;;;;;;;;;;;;19.08;69.14;97714.34;5074011;28;19916;-76
2023/11/04 12:29:19;;;;;;;;;;;;;;;19.16;66.97;97729.78;5092150;28;19912;-78
2023/11/04 12:31:44;;;;;;;;;;;;;;;19.21;67.25;97739.66;5074140;28;19919;-77
2023/11/04 12:34:10;;;;;;;;;;;;;;;19.22;66.50;97768.81;5091832;28;20366;-77
2023/11/04 12:36:36;;;;;;;;;;;;;;;19.20;68.55;97770.16;5090888;28;19912;-76
2023/11/04 12:39:02;;;;;;;;;;;;;;;19.19;67.13;97781.94;5092059;28;19909;-77
2023/11/04 12:41:29;;;;;;;;;;;;;;;19.09;67.12;97785.47;5092133;28;19918;-76